Terminal Aerodrome Forecast
Issued by NWS Charleston, WV

Current Version | Previous Version | Graphics & Text | Print | Product List | Glossary On
Versions: 1 2 3 4 5 6 7 8 9 10 11 12 13 14 15 16 17 18 19 20 21 22 23
217
FTUS41 KRLX 280803 AAA
TAFCRW
TAF AMD
KCRW 280803Z 2808/2906 24006KT 1/4SM -RA FG BKN001 OVC017
      TEMPO 2808/2811 4SM -RA OVC017
     FM281100 16004KT 4SM BR OVC015
     FM281300 18004KT P6SM OVC025
     FM281700 24007KT P6SM BKN040
     FM290300 VRB03KT P6SM SCT200=

USA.gov is the U.S. government's official web portal to all federal, state and local government web resources and services.